Time;durP1;ratioP1;P1;durP2;ratioP2;P2;SDS_P1;SDS_P2;PMS_P1;PMS_P2;Temp;Humidity;BMP_temperature;BMP_pressure;BME280_temperature;BME280_humidity;BME280_pressure;Samples;Min_cycle;Max_cycle;Signal;HPM_P1;HPM_P2
2021/05/27 00:00:23;;;;;;;2.47;1.52;;;;;;;13.84;76.62;99762.70;2795005;84;21066;-73
2021/05/27 00:04:26;;;;;;;1.80;1.47;;;;;;;13.84;76.82;99765.37;2825979;83;21030;-73
2021/05/27 00:08:28;;;;;;;4.87;2.22;;;;;;;13.82;76.78;99766.04;2795123;85;21098;-71
2021/05/27 00:12:29;;;;;;;2.58;2.15;;;;;;;13.80;77.07;99774.72;2842579;82;21082;-71
2021/05/27 00:16:31;;;;;;;2.30;1.80;;;;;;;13.76;77.02;99781.39;2794427;85;21062;-72
2021/05/27 00:20:33;;;;;;;2.83;1.55;;;;;;;13.73;77.34;99788.36;2842066;83;21094;-72
2021/05/27 00:24:40;;;;;;;1.47;1.37;;;;;;;13.67;77.38;99786.34;2794839;84;21610;-71
2021/05/27 00:28:39;;;;;;;3.02;2.72;;;;;;;13.62;77.56;99790.81;2860998;82;21078;-72
2021/05/27 00:32:41;;;;;;;3.75;2.12;;;;;;;13.63;77.53;99798.34;2913834;81;21046;-71
2021/05/27 00:36:43;;;;;;;3.10;2.60;;;;;;;13.61;77.57;99797.67;2914049;81;21658;-71
2021/05/27 00:40:45;;;;;;;1.92;1.30;;;;;;;13.58;77.80;99811.34;2913534;81;21095;-72
2021/05/27 00:45:00;;;;;;;1.40;1.30;;;;;;;13.56;77.59;99811.01;2838537;83;21050;-72
2021/05/27 00:49:03;;;;;;;1.12;0.45;;;;;;;13.56;75.88;99820.36;2949061;80;21089;-72
2021/05/27 00:53:04;;;;;;;0.62;0.60;;;;;;;13.59;75.53;99835.73;2949945;80;21104;-72
2021/05/27 00:57:12;;;;;;;0.78;0.57;;;;;;;13.56;75.00;99836.39;2949852;80;21670;-72
2021/05/27 01:01:14;;;;;;;0.80;0.40;;;;;;;13.56;73.84;99844.41;2949183;80;21053;-73
2021/05/27 01:05:17;;;;;;;0.50;0.40;;;;;;;13.53;74.64;99839.35;2838823;83;21090;-71
2021/05/27 01:09:19;;;;;;;0.72;0.30;;;;;;;13.46;75.82;99834.78;2914245;81;21070;-70
2021/05/27 01:13:24;;;;;;;0.35;0.35;;;;;;;13.38;76.20;99840.91;2914357;81;21034;-71
2021/05/27 01:17:25;;;;;;;0.13;0.13;;;;;;;13.27;76.60;99852.16;2950342;80;21598;-72
2021/05/27 01:21:31;;;;;;;0.90;0.20;;;;;;;13.14;76.87;99865.91;2952795;80;21050;-70
2021/05/27 01:25:33;;;;;;;0.57;0.15;;;;;;;13.03;76.71;99858.63;2954493;80;21594;-71
2021/05/27 01:29:35;;;;;;;0.75;0.30;;;;;;;12.95;76.82;99868.20;2923326;80;21129;-72
2021/05/27 01:33:38;;;;;;;0.60;0.20;;;;;;;12.92;76.74;99875.19;2901960;80;21646;-71
2021/05/27 01:37:40;;;;;;;0.25;0.13;;;;;;;12.84;77.08;99869.27;2902097;81;21019;-71
2021/05/27 01:41:42;;;;;;;0.30;0.25;;;;;;;12.81;77.36;99877.58;2901623;82;21053;-70
2021/05/27 01:45:44;;;;;;;0.37;0.30;;;;;;;12.82;77.71;99883.77;2901740;82;21528;-71
2021/05/27 01:49:45;;;;;;;1.00;0.70;;;;;;;12.79;77.73;99890.23;2902260;80;21058;-70
2021/05/27 01:53:47;;;;;;;0.40;0.10;;;;;;;12.72;77.41;99899.84;2902298;81;21077;-69
2021/05/27 01:57:49;;;;;;;0.42;0.20;;;;;;;12.64;77.42;99908.59;2902451;82;21030;-69
2021/05/27 02:01:50;;;;;;;0.20;0.20;;;;;;;12.53;77.23;99910.97;2901979;82;21054;-70
2021/05/27 02:05:52;;;;;;;0.70;0.40;;;;;;;12.46;77.17;99919.19;2902487;82;21065;-69
2021/05/27 02:09:54;;;;;;;0.75;0.47;;;;;;;12.37;77.04;99916.09;2902453;81;21038;-71
2021/05/27 02:13:56;;;;;;;0.35;0.30;;;;;;;12.26;76.67;99923.27;2877997;81;21067;-69
2021/05/27 02:17:57;;;;;;;0.50;0.10;;;;;;;12.14;77.07;99929.27;2843866;82;21087;-71
2021/05/27 02:21:59;;;;;;;1.45;0.42;;;;;;;12.07;77.10;99936.19;2843754;83;21045;-69
2021/05/27 02:26:01;;;;;;;0.23;0.17;;;;;;;11.98;77.43;99925.86;2843429;83;21096;-70
2021/05/27 02:30:05;;;;;;;0.45;0.30;;;;;;;11.94;77.34;99935.13;2848719;83;21088;-73
2021/05/27 02:34:07;;;;;;;0.62;0.30;;;;;;;11.85;77.55;99936.83;2851510;82;21111;-72
2021/05/27 02:38:09;;;;;;;0.47;0.30;;;;;;;11.78;77.37;99944.20;2886051;82;21107;-72
2021/05/27 02:42:10;;;;;;;0.25;0.23;;;;;;;11.71;77.58;99942.59;2901613;82;21095;-72
2021/05/27 02:46:14;;;;;;;4.97;0.85;;;;;;;11.67;77.46;99949.19;2901212;82;21111;-70
2021/05/27 02:50:15;;;;;;;0.40;0.20;;;;;;;11.57;77.63;99954.52;2901356;82;21084;-70
2021/05/27 02:54:18;;;;;;;0.55;0.30;;;;;;;11.53;77.71;99957.13;2901172;82;21072;-70
2021/05/27 02:58:21;;;;;;;1.20;0.45;;;;;;;11.46;77.67;99955.50;2856016;82;21372;-71
2021/05/27 03:02:27;;;;;;;0.50;0.37;;;;;;;11.37;77.75;99962.98;2853974;80;21564;-69
2021/05/27 03:06:28;;;;;;;0.50;0.35;;;;;;;11.27;77.96;99958.50;2865467;82;21075;-71
2021/05/27 03:10:30;;;;;;;1.07;0.37;;;;;;;11.17;78.27;99958.14;2851480;83;21091;-69
2021/05/27 03:14:32;;;;;;;1.12;0.40;;;;;;;11.10;78.67;99968.02;2876068;82;21092;-70
2021/05/27 03:18:34;;;;;;;0.68;0.40;;;;;;;11.08;78.88;99973.11;2901273;82;21052;-72
2021/05/27 03:22:36;;;;;;;0.50;0.50;;;;;;;11.05;79.19;99973.39;2898113;82;21083;-65
2021/05/27 03:26:39;;;;;;;3.10;0.70;;;;;;;11.08;79.35;99966.45;2850949;83;21012;-64
2021/05/27 03:30:40;;;;;;;1.00;0.80;;;;;;;11.06;79.25;99964.42;2848876;82;21115;-64
2021/05/27 03:34:42;;;;;;;1.05;0.60;;;;;;;11.04;79.54;99968.54;2847377;83;21242;-64
2021/05/27 03:38:44;;;;;;;0.85;0.45;;;;;;;10.98;79.89;99967.77;2847647;83;21095;-64
2021/05/27 03:42:50;;;;;;;0.45;0.40;;;;;;;10.93;80.33;99970.83;2872353;82;21083;-65
2021/05/27 03:46:52;;;;;;;10.40;2.72;;;;;;;10.95;80.59;99970.70;2896857;82;21028;-65
2021/05/27 03:50:53;;;;;;;2.08;0.68;;;;;;;10.96;80.70;99971.88;2896757;82;21541;-64
2021/05/27 03:54:55;;;;;;;1.98;0.53;;;;;;;10.99;80.97;99976.10;2896568;82;21032;-65
2021/05/27 04:03:18;;;;;;;1.02;0.80;;;;;;;11.16;81.11;99991.06;2896813;82;21060;-63
2021/05/27 04:07:21;;;;;;;1.25;0.95;;;;;;;11.43;81.45;99990.41;2897018;82;21112;-64
2021/05/27 04:11:24;;;;;;;0.53;0.53;;;;;;;11.86;80.80;99998.95;2897199;82;21084;-64
2021/05/27 04:15:32;;;;;;;2.20;1.17;;;;;;;12.70;80.70;100002.72;2897291;82;21068;-64
2021/05/27 04:19:34;;;;;;;2.85;1.00;;;;;;;13.82;79.77;100001.29;2897569;82;21064;-62
2021/05/27 04:23:36;;;;;;;1.02;0.50;;;;;;;15.00;75.20;100011.22;2898187;82;21072;-63
2021/05/27 04:27:39;;;;;;;1.20;0.37;;;;;;;16.09;72.98;100000.52;2898885;82;21056;-62
2021/05/27 04:31:41;;;;;;;0.70;0.60;;;;;;;17.21;70.66;99999.39;2903062;81;21072;-63
2021/05/27 04:35:43;;;;;;;3.80;0.60;;;;;;;18.06;66.09;99998.95;2904364;82;21119;-63
2021/05/27 04:39:44;;;;;;;2.75;0.60;;;;;;;18.74;63.11;99996.74;2904330;82;21027;-63
2021/05/27 04:43:52;;;;;;;0.85;0.60;;;;;;;19.34;61.44;99999.89;2897968;82;21057;-65
2021/05/27 04:47:52;;;;;;;1.80;0.75;;;;;;;19.78;59.55;100005.62;2904023;82;21270;-66
2021/05/27 04:51:56;;;;;;;2.08;0.70;;;;;;;19.87;57.06;100004.16;2904414;82;21056;-66
2021/05/27 04:56:00;;;;;;;2.65;0.85;;;;;;;19.74;56.33;100005.69;2904999;82;21091;-66
2021/05/27 05:00:07;;;;;;;4.62;1.27;;;;;;;19.67;55.58;100000.23;2904727;82;21056;-66
2021/05/27 05:04:09;;;;;;;1.40;0.78;;;;;;;19.57;55.80;100002.92;2903863;82;21044;-66
2021/05/27 05:08:11;;;;;;;2.17;1.32;;;;;;;19.57;56.70;100008.32;2891743;82;21075;-66
2021/05/27 05:12:13;;;;;;;4.53;0.80;;;;;;;19.78;56.29;100007.50;2855261;83;21134;-66
2021/05/27 05:16:14;;;;;;;1.27;0.93;;;;;;;20.06;56.60;100004.02;2855456;83;21075;-66
2021/05/27 05:20:20;;;;;;;1.05;1.00;;;;;;;20.33;55.74;100015.86;2892326;82;21092;-66
2021/05/27 05:24:22;;;;;;;;;;;;;;;20.58;54.76;100009.98;2898337;82;21048;-66
2021/05/27 05:28:23;;;;;;;1.00;0.80;;;;;;;20.75;53.60;100009.67;2856255;83;20195;-66
2021/05/27 05:32:25;;;;;;;1.92;0.72;;;;;;;20.94;53.36;100013.56;2851771;82;21083;-66
2021/05/27 05:36:27;;;;;;;2.10;1.05;;;;;;;21.01;53.83;100010.86;2870010;82;21095;-66
2021/05/27 05:40:30;;;;;;;0.72;0.60;;;;;;;20.91;52.33;100009.87;2900856;82;21063;-66
2021/05/27 05:44:32;;;;;;;1.00;1.00;;;;;;;20.69;52.65;100013.50;2895854;82;21067;-66
2021/05/27 05:48:35;;;;;;;1.00;0.68;;;;;;;20.39;52.93;100016.41;2851559;83;21060;-66
2021/05/27 05:52:37;;;;;;;2.15;1.30;;;;;;;19.83;52.79;100021.23;2850875;83;21067;-66
2021/05/27 05:56:39;;;;;;;1.52;1.17;;;;;;;19.40;54.06;100018.84;2850859;83;21573;-66
2021/05/27 06:00:41;;;;;;;1.52;1.35;;;;;;;18.89;54.60;100021.50;2850699;83;21059;-66
2021/05/27 06:04:42;;;;;;;1.82;1.30;;;;;;;18.81;55.14;100027.82;2850727;82;21119;-66
2021/05/27 06:08:44;;;;;;;1.80;1.37;;;;;;;18.82;54.82;100031.69;2850867;83;21589;-66
2021/05/27 06:12:53;;;;;;;2.45;1.22;;;;;;;18.66;53.75;100029.99;2850664;83;21064;-66
2021/05/27 06:16:56;;;;;;;1.07;0.95;;;;;;;18.63;53.91;100039.80;2849987;83;21072;-66
2021/05/27 06:20:58;;;;;;;3.83;1.15;;;;;;;18.50;54.12;100040.45;2850622;83;21068;-66
2021/05/27 06:25:00;;;;;;;2.45;1.47;;;;;;;18.49;54.36;100043.34;2850383;83;21534;-66
2021/05/27 06:29:04;;;;;;;1.37;1.12;;;;;;;18.33;55.26;100042.47;2850329;82;21032;-66
2021/05/27 06:33:09;;;;;;;1.17;0.80;;;;;;;18.05;55.47;100046.25;2854273;83;21072;-66
2021/05/27 06:37:14;;;;;;;2.65;1.27;;;;;;;17.64;56.01;100044.16;2853907;83;21072;-66
2021/05/27 06:41:21;;;;;;;1.67;1.55;;;;;;;17.53;58.11;100052.62;2854257;83;21457;-66
2021/05/27 06:45:24;;;;;;;3.40;1.72;;;;;;;17.54;57.07;100047.08;2853933;83;21036;-66
2021/05/27 06:49:25;;;;;;;3.87;1.75;;;;;;;17.38;56.03;100043.14;2854144;83;21031;-66
2021/05/27 06:53:26;;;;;;;2.40;1.55;;;;;;;17.20;56.75;100054.16;2854179;83;21051;-66
2021/05/27 06:57:29;;;;;;;4.75;1.82;;;;;;;16.82;57.28;100066.84;2854024;83;21664;-65
2021/05/27 07:01:31;;;;;;;3.55;2.22;;;;;;;17.02;58.52;100067.82;2854109;83;21051;-66
2021/05/27 07:05:35;;;;;;;4.35;1.77;;;;;;;17.44;56.72;100062.59;2854298;83;21028;-65
2021/05/27 07:09:39;;;;;;;1.55;1.45;;;;;;;17.83;56.53;100059.50;2853610;83;21060;-66
2021/05/27 07:13:40;;;;;;;1.98;1.25;;;;;;;18.10;54.65;100072.95;2854622;83;21060;-66
2021/05/27 07:17:43;;;;;;;2.15;1.25;;;;;;;18.50;57.45;100066.03;2854845;83;21075;-66
2021/05/27 07:21:45;;;;;;;1.50;1.40;;;;;;;18.61;55.56;100066.61;2854698;83;21056;-66
2021/05/27 07:25:48;;;;;;;2.65;1.57;;;;;;;18.39;54.59;100070.53;2854669;83;21048;-66
2021/05/27 07:29:50;;;;;;;2.20;1.40;;;;;;;17.90;54.90;100079.28;2854619;82;21067;-66
2021/05/27 07:33:51;;;;;;;1.20;1.10;;;;;;;18.13;56.52;100073.94;2854662;83;21032;-66
2021/05/27 07:37:54;;;;;;;4.53;1.45;;;;;;;18.56;56.80;100065.28;2854878;83;21024;-66
2021/05/27 07:41:56;;;;;;;3.17;1.47;;;;;;;18.76;52.65;100069.31;2854745;83;21104;-66
2021/05/27 07:45:57;;;;;;;2.17;1.95;;;;;;;18.88;52.30;100074.58;2854967;83;21064;-66
2021/05/27 07:50:00;;;;;;;2.17;1.25;;;;;;;18.97;52.64;100066.71;2854941;83;21548;-66
2021/05/27 07:54:02;;;;;;;3.47;1.45;;;;;;;18.63;53.11;100073.47;2854999;83;22165;-66
2021/05/27 07:58:04;;;;;;;1.70;1.30;;;;;;;18.84;52.90;100073.25;2855190;83;21345;-66
2021/05/27 08:02:05;;;;;;;4.40;0.95;;;;;;;18.66;53.46;100073.09;2854819;83;21075;-66
2021/05/27 08:06:07;;;;;;;3.87;1.25;;;;;;;18.74;51.50;100080.26;2855052;83;21020;-66
2021/05/27 08:10:12;;;;;;;1.65;1.05;;;;;;;18.56;54.17;100076.58;2854641;83;21135;-66
2021/05/27 08:14:14;;;;;;;0.90;0.80;;;;;;;18.23;53.78;100080.91;2854647;83;21290;-66
2021/05/27 08:18:15;;;;;;;2.52;0.90;;;;;;;17.78;54.64;100085.59;2854209;83;21052;-66
2021/05/27 08:22:17;;;;;;;2.33;1.00;;;;;;;17.39;56.44;100098.58;2854502;83;21087;-66
2021/05/27 08:26:20;;;;;;;0.57;0.57;;;;;;;17.20;58.24;100110.61;2854201;83;21124;-66
2021/05/27 08:30:22;;;;;;;1.27;1.02;;;;;;;17.20;60.02;100107.39;2854377;83;21029;-66
2021/05/27 08:34:24;;;;;;;1.12;0.65;;;;;;;17.49;59.24;100097.87;2854670;83;21123;-66
2021/05/27 08:38:26;;;;;;;0.88;0.70;;;;;;;18.20;57.22;100099.62;2854626;83;21072;-66
2021/05/27 08:42:28;;;;;;;0.60;0.60;;;;;;;18.76;56.68;100093.03;2854987;83;21021;-66
2021/05/27 08:46:30;;;;;;;1.67;0.90;;;;;;;18.73;54.48;100089.89;2854893;83;21036;-66
2021/05/27 08:50:41;;;;;;;0.95;0.95;;;;;;;18.52;55.70;100092.79;2854754;83;21008;-66
2021/05/27 08:54:38;;;;;;;1.15;1.05;;;;;;;18.23;56.83;100093.03;2853163;83;21052;-66
2021/05/27 08:58:41;;;;;;;5.50;1.42;;;;;;;18.28;58.13;100089.30;2854694;83;21099;-66
2021/05/27 09:03:00;;;;;;;1.15;0.78;;;;;;;18.39;56.76;100092.07;2854855;83;21573;-66
2021/05/27 09:07:03;;;;;;;7.12;0.93;;;;;;;18.46;57.28;100090.80;2810058;83;21068;-66
2021/05/27 09:11:11;;;;;;;3.35;0.98;;;;;;;18.93;56.29;100081.59;2854204;83;21052;-66
2021/05/27 09:15:20;;;;;;;1.07;0.93;;;;;;;18.83;56.21;100087.75;2854398;83;21056;-66
2021/05/27 09:19:22;;;;;;;6.55;0.90;;;;;;;18.71;57.53;100096.80;2854694;83;21068;-66
2021/05/27 09:23:23;;;;;;;1.32;0.90;;;;;;;18.59;56.11;100103.67;2854844;83;21048;-66
2021/05/27 09:27:48;;;;;;;2.27;0.95;;;;;;;18.53;56.08;100101.20;2854698;83;21055;-66
2021/05/27 09:32:09;;;;;;;0.85;0.60;;;;;;;18.38;55.64;100103.86;2852254;82;21123;-66
2021/05/27 09:36:17;;;;;;;2.02;0.50;;;;;;;18.46;56.95;100107.81;2850484;82;21095;-66
2021/05/27 09:40:39;;;;;;;1.57;0.90;;;;;;;18.59;57.04;100106.37;2850216;82;21104;-66
2021/05/27 09:44:42;;;;;;;0.70;0.57;;;;;;;18.56;56.68;100111.08;2849578;83;21084;-66
2021/05/27 09:48:45;;;;;;;1.57;0.55;;;;;;;18.61;57.60;100107.84;2850418;83;21048;-66
2021/05/27 09:52:48;;;;;;;0.98;0.45;;;;;;;18.73;58.41;100104.71;2850790;82;21052;-66
2021/05/27 09:56:50;;;;;;;0.62;0.62;;;;;;;19.21;58.40;100100.34;2850926;82;21104;-66
2021/05/27 10:00:54;;;;;;;2.10;0.68;;;;;;;19.52;55.99;100102.80;2850915;83;21059;-66
2021/05/27 10:05:03;;;;;;;1.12;0.50;;;;;;;19.54;54.40;100106.14;2850922;83;21071;-66
2021/05/27 10:09:08;;;;;;;1.12;0.57;;;;;;;19.53;56.24;100103.12;2850661;82;21087;-66
2021/05/27 10:13:13;;;;;;;13.73;2.40;;;;;;;19.57;54.64;100108.13;2851174;83;21036;-65
2021/05/27 10:17:16;;;;;;;2.33;0.93;;;;;;;19.49;55.20;100107.23;2851220;83;21634;-66
2021/05/27 10:21:19;;;;;;;0.90;0.75;;;;;;;19.35;53.83;100103.50;2851279;83;21103;-66
2021/05/27 10:25:21;;;;;;;1.57;0.75;;;;;;;19.16;55.47;100108.13;2850785;82;21051;-66
2021/05/27 10:29:25;;;;;;;0.60;0.60;;;;;;;19.05;56.82;100119.72;2851163;82;21036;-66
2021/05/27 10:33:27;;;;;;;1.25;0.53;;;;;;;19.03;57.80;100117.72;2852461;82;21075;-66
2021/05/27 10:37:43;;;;;;;1.85;0.40;;;;;;;19.01;56.69;100108.14;2836394;83;21080;-66
2021/05/27 10:41:51;;;;;;;0.65;0.65;;;;;;;18.98;57.95;100117.42;2852486;83;21048;-66
2021/05/27 10:46:06;;;;;;;58.87;8.58;;;;;;;19.03;57.11;100112.83;2851493;83;21023;-66
2021/05/27 10:50:09;;;;;;;0.78;0.70;;;;;;;19.08;55.19;100105.05;2852255;83;21114;-66
2021/05/27 10:54:26;;;;;;;1.35;0.80;;;;;;;19.30;56.52;100102.42;2852634;82;21074;-66
2021/05/27 10:58:53;;;;;;;1.37;0.60;;;;;;;19.44;54.74;100107.47;2852330;82;21055;-63
2021/05/27 11:02:55;;;;;;;0.88;0.70;;;;;;;19.46;55.21;100101.36;2852766;82;21091;-63
2021/05/27 11:07:25;;;;;;;0.40;0.25;;;;;;;19.51;55.30;100109.72;2853082;82;21075;-63
2021/05/27 11:11:52;;;;;;;1.20;0.40;;;;;;;19.54;55.76;100107.98;2842464;83;21034;-63
2021/05/27 11:16:05;;;;;;;1.32;0.60;;;;;;;19.44;53.96;100107.47;2852457;83;21086;-63
2021/05/27 11:20:21;;;;;;;0.85;0.62;;;;;;;19.36;55.95;100108.41;2852826;82;21063;-63
2021/05/27 11:28:38;;;;;;;0.90;0.62;;;;;;;19.35;55.32;100102.69;2852714;83;21074;-63
2021/05/27 11:32:40;;;;;;;34.63;5.22;;;;;;;19.45;54.93;100105.09;2852920;82;21060;-63
2021/05/27 11:36:48;;;;;;;1.47;0.60;;;;;;;19.70;56.30;100101.02;2852724;83;21131;-63
2021/05/27 11:40:58;;;;;;;0.65;0.57;;;;;;;19.82;54.31;100090.55;2851945;83;21003;-63
2021/05/27 11:45:04;;;;;;;2.75;0.80;;;;;;;19.89;54.57;100093.86;2852810;82;21094;-63
2021/05/27 11:49:06;;;;;;;0.50;0.50;;;;;;;19.87;54.11;100091.87;2852784;82;21062;-63
2021/05/27 11:53:09;;;;;;;1.55;0.50;;;;;;;19.81;52.72;100084.84;2853098;83;21083;-63
2021/05/27 11:57:11;;;;;;;0.40;0.33;;;;;;;19.71;53.24;100080.28;2853278;83;21122;-63
2021/05/27 12:01:16;;;;;;;0.93;0.50;;;;;;;19.67;54.06;100073.61;2853174;83;21055;-63
2021/05/27 12:05:38;;;;;;;3.80;0.90;;;;;;;19.67;53.76;100070.38;2853374;82;21071;-63
2021/05/27 12:09:46;;;;;;;0.70;0.70;;;;;;;19.98;54.56;100064.37;2853469;83;21059;-63
2021/05/27 12:13:54;;;;;;;2.67;0.70;;;;;;;20.41;54.15;100073.77;2853317;83;21098;-63
2021/05/27 12:17:58;;;;;;;0.40;0.40;;;;;;;20.75;52.59;100063.22;2850441;83;21127;-63
2021/05/27 12:22:00;;;;;;;7.35;0.85;;;;;;;20.47;49.76;100071.34;2853534;82;21083;-64
2021/05/27 12:26:08;;;;;;;2.45;0.72;;;;;;;20.40;52.58;100067.23;2853588;83;21087;-63
2021/05/27 12:30:12;;;;;;;0.82;0.50;;;;;;;20.32;52.20;100058.76;2853552;83;21071;-64
2021/05/27 12:34:15;;;;;;;1.32;0.40;;;;;;;20.21;52.51;100053.87;2855245;83;21123;-63
2021/05/27 12:38:24;;;;;;;0.55;0.55;;;;;;;20.10;51.69;100057.94;2855831;83;21080;-64
2021/05/27 12:42:31;;;;;;;1.02;0.65;;;;;;;20.03;52.75;100055.17;2855701;83;21107;-63
2021/05/27 12:46:34;;;;;;;0.60;0.50;;;;;;;19.88;52.00;100053.87;2855121;83;21040;-64
2021/05/27 12:50:40;;;;;;;20.02;2.08;;;;;;;19.80;55.09;100053.48;2855861;83;21060;-63
2021/05/27 12:54:43;;;;;;;0.82;0.60;;;;;;;20.22;55.54;100053.70;2856132;83;21028;-63
2021/05/27 12:58:49;;;;;;;1.45;0.60;;;;;;;20.50;51.07;100047.98;2863762;80;21098;-65
2021/05/27 13:03:07;;;;;;;0.95;0.33;;;;;;;20.43;50.68;100055.19;2904433;82;21052;-65
2021/05/27 13:07:13;;;;;;;0.65;0.65;;;;;;;20.36;51.20;100051.92;2904549;82;21060;-64
2021/05/27 13:11:32;;;;;;;0.80;0.80;;;;;;;20.41;53.38;100048.11;2904211;82;21052;-64
2021/05/27 13:15:45;;;;;;;0.42;0.40;;;;;;;20.84;52.42;100038.25;2904357;81;21048;-66
2021/05/27 13:19:46;;;;;;;0.53;0.47;;;;;;;21.15;50.28;100038.27;2905434;82;21890;-63
2021/05/27 13:23:48;;;;;;;1.30;1.17;;;;;;;21.08;49.66;100044.19;2906210;82;21068;-63
2021/05/27 13:27:53;;;;;;;0.80;0.60;;;;;;;20.92;51.47;100047.53;2905974;82;21108;-66
2021/05/27 13:31:56;;;;;;;0.53;0.42;;;;;;;20.86;52.54;100046.14;2904931;81;21121;-66
2021/05/27 13:36:02;;;;;;;4.75;0.82;;;;;;;20.76;52.40;100045.97;2900943;82;21194;-68
2021/05/27 13:40:10;;;;;;;5.17;1.72;;;;;;;20.49;53.60;100043.61;2901728;82;21044;-65
2021/05/27 13:44:13;;;;;;;1.02;0.50;;;;;;;20.24;52.61;100040.83;2901365;82;21080;-65
2021/05/27 13:48:15;;;;;;;1.00;0.70;;;;;;;20.05;53.82;100045.05;2901637;82;21016;-65
2021/05/27 13:52:17;;;;;;;2.50;0.82;;;;;;;20.02;54.42;100044.06;2901577;82;21557;-65
2021/05/27 13:56:22;;;;;;;0.60;0.60;;;;;;;20.00;54.40;100048.82;2901384;82;21028;-65
2021/05/27 14:00:23;;;;;;;3.05;0.60;;;;;;;19.93;53.72;100043.89;2901074;82;21020;-65
2021/05/27 14:04:29;;;;;;;2.87;0.88;;;;;;;19.80;52.71;100043.22;2900818;82;21044;-65
2021/05/27 14:08:30;;;;;;;1.15;1.10;;;;;;;19.72;54.72;100052.27;2901029;82;21076;-66
2021/05/27 14:12:32;;;;;;;0.93;0.80;;;;;;;19.59;54.54;100046.73;2900845;82;21080;-65
2021/05/27 14:16:37;;;;;;;1.57;1.07;;;;;;;19.36;54.88;100053.12;2900703;82;21526;-65
2021/05/27 14:20:39;;;;;;;0.90;0.65;;;;;;;19.11;55.31;100054.27;2899838;81;21004;-65
2021/05/27 14:24:41;;;;;;;12.07;3.25;;;;;;;18.84;57.43;100061.13;2899969;82;21025;-65
2021/05/27 14:28:43;;;;;;;2.50;0.90;;;;;;;18.77;57.21;100065.59;2900728;82;21016;-64
2021/05/27 14:32:45;;;;;;;3.05;1.00;;;;;;;18.88;58.76;100066.49;2901751;81;21044;-65
2021/05/27 14:36:48;;;;;;;2.98;1.20;;;;;;;18.88;56.57;100066.49;2904646;82;21096;-65
2021/05/27 14:40:50;;;;;;;3.22;1.77;;;;;;;18.87;56.82;100082.34;2904743;82;21032;-65
2021/05/27 14:44:53;;;;;;;5.75;1.57;;;;;;;18.45;56.39;100077.02;2904297;82;21063;-65
2021/05/27 14:48:55;;;;;;;4.12;1.25;;;;;;;17.97;57.24;100104.97;2903699;82;21080;-65
2021/05/27 14:53:00;;;;;;;3.50;1.45;;;;;;;17.38;59.94;100104.97;2903756;82;21099;-65
2021/05/27 14:57:03;;;;;;;5.15;1.72;;;;;;;16.90;61.03;100115.19;2903135;82;21068;-65
2021/05/27 15:01:05;;;;;;;1.67;1.10;;;;;;;16.32;63.92;100139.41;2871671;82;21088;-64
2021/05/27 15:05:11;;;;;;;1.30;0.88;;;;;;;15.86;66.79;100131.77;2902657;82;21072;-64
2021/05/27 15:09:12;;;;;;;;;;;;;;;15.51;71.30;100149.76;2903753;82;21570;-64
2021/05/27 15:13:15;;;;;;;2.77;1.17;;;;;;;15.08;72.16;100149.23;2880476;82;20174;-64
2021/05/27 15:17:17;;;;;;;1.35;1.25;;;;;;;14.72;74.41;100160.03;2880185;82;21052;-64
2021/05/27 15:21:19;;;;;;;1.92;1.30;;;;;;;14.40;75.83;100168.09;2880088;82;21013;-64
2021/05/27 15:25:21;;;;;;;2.10;1.95;;;;;;;14.24;75.89;100166.95;2880068;82;21537;-63
2021/05/27 15:29:24;;;;;;;2.77;1.87;;;;;;;14.16;76.26;100167.40;2880068;82;21061;-64
2021/05/27 15:33:26;;;;;;;2.05;1.85;;;;;;;14.17;75.69;100167.73;2880065;82;21681;-64
2021/05/27 15:37:29;;;;;;;2.77;1.82;;;;;;;14.21;76.37;100165.92;2880050;82;21173;-64
2021/05/27 15:41:30;;;;;;;1.32;1.22;;;;;;;14.33;76.21;100171.88;2880257;82;21083;-64
2021/05/27 15:45:34;;;;;;;1.57;0.80;;;;;;;14.47;76.00;100162.97;2879954;82;21056;-64
2021/05/27 15:49:36;;;;;;;2.65;1.62;;;;;;;14.59;76.15;100167.10;2873443;82;21076;-63
2021/05/27 15:53:38;;;;;;;3.80;0.60;;;;;;;14.68;76.04;100168.83;2880412;82;21084;-63
2021/05/27 15:57:40;;;;;;;1.20;0.75;;;;;;;14.66;75.80;100164.14;2836422;82;21064;-62
2021/05/27 16:01:41;;;;;;;0.75;0.68;;;;;;;14.61;75.81;100157.08;2831102;84;21573;-62
2021/05/27 16:05:43;;;;;;;0.62;0.60;;;;;;;14.59;77.37;100170.27;2831189;84;21021;-62
2021/05/27 16:09:45;;;;;;;0.40;0.30;;;;;;;14.55;77.70;100171.09;2831395;84;21067;-63
2021/05/27 16:13:47;;;;;;;0.30;0.30;;;;;;;14.57;78.09;100175.78;2831016;84;21118;-63
2021/05/27 16:17:50;;;;;;;0.60;0.57;;;;;;;14.65;77.99;100181.71;2831125;84;21120;-63
2021/05/27 16:21:52;;;;;;;0.93;0.30;;;;;;;14.81;79.28;100179.67;2831355;84;21080;-63
2021/05/27 16:25:57;;;;;;;0.53;0.47;;;;;;;14.99;81.40;100195.69;2830752;84;21108;-64
2021/05/27 16:29:59;;;;;;;1.25;0.57;;;;;;;15.14;80.09;100204.02;2830795;84;21083;-63
2021/05/27 16:34:08;;;;;;;4.55;1.50;;;;;;;15.23;78.43;100209.75;2831130;83;21060;-63
2021/05/27 16:38:18;;;;;;;5.72;2.87;;;;;;;15.33;79.10;100212.32;2830350;84;21107;-63
2021/05/27 16:42:20;;;;;;;2.02;1.45;;;;;;;15.36;78.64;100221.38;2831148;84;21064;-64
2021/05/27 16:46:23;;;;;;;2.15;1.55;;;;;;;15.24;75.65;100232.05;2831090;84;21057;-63
2021/05/27 16:50:27;;;;;;;4.30;2.12;;;;;;;15.08;74.92;100230.07;2830816;84;21084;-63
2021/05/27 16:54:30;;;;;;;2.25;1.52;;;;;;;14.90;75.63;100227.44;2830420;84;21065;-63
2021/05/27 16:58:34;;;;;;;0.93;0.72;;;;;;;14.64;75.22;100224.17;2830327;84;21671;-63
2021/05/27 17:02:36;;;;;;;1.10;0.90;;;;;;;14.33;75.76;100249.47;2830508;83;21627;-62
2021/05/27 17:06:38;;;;;;;0.55;0.45;;;;;;;14.10;76.84;100248.56;2830139;84;21412;-63
2021/05/27 17:10:39;;;;;;;1.60;1.10;;;;;;;13.89;76.95;100258.20;2830140;84;21098;-63
2021/05/27 17:14:41;;;;;;;1.62;1.52;;;;;;;13.75;78.63;100268.86;2830352;84;21598;-62
2021/05/27 17:18:43;;;;;;;1.85;1.42;;;;;;;13.63;80.17;100254.02;2830000;84;21082;-63
2021/05/27 17:22:46;;;;;;;2.27;1.45;;;;;;;13.51;80.98;100251.51;2830062;84;21133;-62
2021/05/27 17:26:49;;;;;;;1.27;1.17;;;;;;;13.37;81.56;100250.13;2829697;84;21085;-63
2021/05/27 17:30:51;;;;;;;2.35;1.55;;;;;;;13.27;82.47;100251.99;2830005;84;21089;-63
2021/05/27 17:34:53;;;;;;;1.90;1.50;;;;;;;13.16;83.61;100248.97;2829752;83;21114;-63
2021/05/27 17:38:54;;;;;;;1.12;0.95;;;;;;;13.09;84.26;100233.17;2829972;84;21054;-63
2021/05/27 17:42:57;;;;;;;0.60;0.60;;;;;;;12.99;84.86;100235.86;2829932;82;29699;-62
2021/05/27 17:47:01;;;;;;;0.70;0.53;;;;;;;12.88;85.38;100236.03;2829939;84;21117;-63
2021/05/27 17:51:03;;;;;;;1.47;0.72;;;;;;;12.76;85.57;100235.31;2829708;84;21046;-63
2021/05/27 17:55:08;;;;;;;1.25;1.15;;;;;;;12.70;85.89;100234.08;2829839;84;21085;-64
2021/05/27 17:59:10;;;;;;;1.70;0.93;;;;;;;12.69;86.62;100240.40;2829853;84;21082;-63
2021/05/27 18:03:12;;;;;;;1.37;0.80;;;;;;;12.70;86.95;100242.08;2829800;84;21134;-64
2021/05/27 18:07:14;;;;;;;1.95;0.65;;;;;;;12.73;87.00;100240.46;2829960;84;21086;-64
2021/05/27 18:11:16;;;;;;;2.85;0.90;;;;;;;12.78;87.14;100248.88;2829646;84;21089;-63
2021/05/27 18:15:18;;;;;;;2.02;1.20;;;;;;;12.88;87.11;100249.38;2829852;84;21101;-64
2021/05/27 18:19:21;;;;;;;1.02;0.93;;;;;;;12.96;86.58;100257.00;2829744;84;21090;-63
2021/05/27 18:23:23;;;;;;;4.70;0.80;;;;;;;13.03;86.24;100253.78;2830176;84;21113;-64
2021/05/27 18:27:24;;;;;;;1.20;0.80;;;;;;;13.14;86.10;100252.27;2830070;84;21030;-63
2021/05/27 18:31:27;;;;;;;1.02;0.72;;;;;;;13.23;85.49;100247.42;2829757;82;21214;-63
2021/05/27 18:35:31;;;;;;;0.80;0.62;;;;;;;13.26;84.70;100249.80;2836066;83;21662;-62
2021/05/27 18:39:33;;;;;;;1.32;1.00;;;;;;;13.24;84.27;100254.92;2838986;83;21085;-63
2021/05/27 18:43:35;;;;;;;0.93;0.75;;;;;;;13.23;84.18;100255.91;2839004;83;21583;-62
2021/05/27 18:47:39;;;;;;;1.47;0.93;;;;;;;13.20;83.95;100255.73;2839064;82;21077;-63
2021/05/27 18:51:41;;;;;;;2.12;1.17;;;;;;;13.21;83.71;100264.09;2838762;83;21684;-64
2021/05/27 18:55:43;;;;;;;3.90;1.47;;;;;;;13.17;83.29;100261.84;2839165;83;21137;-62
2021/05/27 18:59:45;;;;;;;1.82;0.95;;;;;;;13.09;83.22;100270.56;2838967;83;21096;-62
2021/05/27 19:03:48;;;;;;;2.05;1.20;;;;;;;12.99;82.80;100280.78;2838864;83;21089;-63